createdAt,value
2023-01-27T00:01:01.643Z,102833.06
2023-01-27T00:03:28.711Z,102822.69
2023-01-27T00:05:58.361Z,102887.97
2023-01-27T00:08:25.790Z,102794.75
2023-01-27T00:11:12.812Z,102810.47
2023-01-27T00:13:40.849Z,102889.66
2023-01-27T00:16:07.901Z,102884.41
2023-01-27T00:18:35.230Z,102888.69
2023-01-27T00:21:20.706Z,102887.81
2023-01-27T00:24:06.113Z,102886.97
2023-01-27T00:26:33.208Z,102887.81
2023-01-27T00:29:00.480Z,102860.72
2023-01-27T00:31:47.245Z,102855.53
2023-01-27T00:34:14.495Z,102891.34
2023-01-27T00:36:42.684Z,102893.13
2023-01-27T00:39:12.812Z,102813.94
2023-01-27T00:41:40.463Z,102796.56
2023-01-27T00:44:12.787Z,102798.31
2023-01-27T00:46:40.242Z,102881.91
2023-01-27T00:49:07.157Z,102802.69
2023-01-27T00:51:36.841Z,102888.91
2023-01-27T00:54:05.569Z,102876.78
2023-01-27T00:56:33.491Z,102814.91
2023-01-27T00:59:00.967Z,102843.69
2023-01-27T01:01:28.047Z,102819.28
2023-01-27T01:03:56.514Z,102813.13
2023-01-27T01:06:23.573Z,102836.66
2023-01-27T01:08:53.272Z,102862.75
2023-01-27T01:11:23.654Z,102841.00
2023-01-27T01:13:51.223Z,102913.25
2023-01-27T01:16:22.057Z,102914.22
2023-01-27T01:18:50.026Z,102911.72
2023-01-27T01:21:17.382Z,102829.75
2023-01-27T01:23:45.970Z,102859.38
2023-01-27T01:26:13.426Z,102920.38
2023-01-27T01:28:40.696Z,102848.13
2023-01-27T01:31:13.355Z,102866.41
2023-01-27T01:33:40.616Z,102860.28
2023-01-27T01:36:14.522Z,102928.28
2023-01-27T01:38:41.685Z,102923.94
2023-01-27T01:41:13.785Z,102883.00
2023-01-27T01:43:42.004Z,102890.00
2023-01-27T01:46:14.582Z,102812.44
2023-01-27T01:48:49.103Z,102924.84
2023-01-27T01:51:31.347Z,102932.69
2023-01-27T01:54:11.636Z,102896.97
2023-01-27T01:56:46.798Z,102901.38
2023-01-27T01:59:21.132Z,102909.22
2023-01-27T02:01:49.088Z,102945.00
2023-01-27T02:04:20.387Z,102859.59
2023-01-27T02:07:04.963Z,102916.22
2023-01-27T02:09:32.306Z,102864.00
2023-01-27T02:12:01.708Z,102891.88
2023-01-27T02:14:28.717Z,102850.94
2023-01-27T02:16:55.818Z,102926.78
2023-01-27T02:19:31.849Z,102912.84
2023-01-27T02:22:01.984Z,102905.94
2023-01-27T02:24:36.931Z,102854.50
2023-01-27T02:27:03.955Z,102950.38
2023-01-27T02:29:34.760Z,102962.59
2023-01-27T02:32:02.032Z,102920.75
2023-01-27T02:34:34.191Z,102968.72
2023-01-27T02:37:06.162Z,102864.09
2023-01-27T02:39:40.800Z,102920.72
2023-01-27T02:42:12.313Z,102877.19
2023-01-27T02:44:39.692Z,102952.16
2023-01-27T02:47:07.079Z,102877.19
2023-01-27T02:49:34.224Z,102866.72
2023-01-27T02:52:01.130Z,102860.59
2023-01-27T02:54:30.240Z,102875.47
2023-01-27T02:56:57.255Z,102971.34
2023-01-27T02:59:24.227Z,102930.34
2023-01-27T03:01:51.475Z,102960.84
2023-01-27T03:04:18.527Z,102865.84
2023-01-27T03:06:45.648Z,102951.31
2023-01-27T03:09:12.673Z,102960.03
2023-01-27T03:11:58.030Z,102910.38
2023-01-27T03:14:43.617Z,102911.19
2023-01-27T03:17:29.557Z,102945.25
2023-01-27T03:19:57.775Z,102990.59
2023-01-27T03:22:24.758Z,102988.81
2023-01-27T03:24:52.856Z,102980.13
2023-01-27T03:27:19.905Z,102958.31
2023-01-27T03:29:56.499Z,102916.50
2023-01-27T03:32:25.766Z,102980.97
2023-01-27T03:34:53.233Z,102900.78
2023-01-27T03:37:40.367Z,102940.91
2023-01-27T03:40:28.804Z,102970.53
2023-01-27T03:43:14.706Z,102984.50
2023-01-27T03:46:06.258Z,103004.56
2023-01-27T03:48:34.266Z,102951.41
2023-01-27T03:51:02.544Z,102906.03
2023-01-27T03:53:29.644Z,102946.19
2023-01-27T03:55:56.757Z,102942.69
2023-01-27T03:58:27.164Z,102912.16
2023-01-27T04:00:57.717Z,102931.34
2023-01-27T04:03:45.637Z,102915.66
2023-01-27T04:06:33.359Z,103020.34
2023-01-27T04:09:00.964Z,102982.84
2023-01-27T04:11:47.420Z,102962.75
2023-01-27T04:14:14.700Z,102969.75
2023-01-27T04:16:42.524Z,102984.59
2023-01-27T04:19:11.341Z,102946.19
2023-01-27T04:21:38.308Z,102969.78
2023-01-27T04:24:09.012Z,102940.97
2023-01-27T04:26:38.621Z,102922.63
2023-01-27T04:29:07.525Z,103016.00
2023-01-27T04:31:35.325Z,102985.47
2023-01-27T04:34:03.181Z,103009.84
2023-01-27T04:36:30.281Z,102953.19
2023-01-27T04:38:57.645Z,103036.06
2023-01-27T04:41:24.940Z,102985.47
2023-01-27T04:43:52.647Z,103037.78
2023-01-27T04:46:19.859Z,103018.59
2023-01-27T04:48:46.646Z,103036.91
2023-01-27T04:51:14.046Z,103005.50
2023-01-27T04:53:41.280Z,102948.81
2023-01-27T04:56:22.935Z,103044.78
2023-01-27T04:58:50.509Z,102950.59
2023-01-27T05:01:17.880Z,103011.66
2023-01-27T05:03:46.012Z,102997.69
2023-01-27T05:06:14.843Z,103040.44
2023-01-27T05:08:42.070Z,102981.97
2023-01-27T05:11:09.585Z,102988.09
2023-01-27T05:13:38.590Z,103033.47
2023-01-27T05:16:24.046Z,103024.75
2023-01-27T05:18:53.637Z,103055.31
2023-01-27T05:21:23.325Z,103038.75
2023-01-27T05:23:51.906Z,102958.44
2023-01-27T05:26:20.385Z,103063.16
2023-01-27T05:28:49.360Z,102970.66
2023-01-27T05:31:22.516Z,102974.19
2023-01-27T05:33:51.969Z,103025.69
2023-01-27T05:36:21.253Z,103057.94
2023-01-27T05:38:49.023Z,103015.19
2023-01-27T05:41:19.855Z,103066.69
2023-01-27T05:43:51.545Z,103028.31
2023-01-27T05:46:21.708Z,103020.44
2023-01-27T05:48:53.081Z,102999.50
2023-01-27T05:51:25.076Z,103033.56
2023-01-27T05:53:54.540Z,102992.50
2023-01-27T05:56:21.425Z,103092.88
2023-01-27T05:58:48.731Z,102982.03
2023-01-27T06:01:21.825Z,103003.88
2023-01-27T06:03:49.178Z,103053.63
2023-01-27T06:06:21.033Z,102976.81
2023-01-27T06:08:48.909Z,103068.47
2023-01-27T06:11:19.970Z,102981.19
2023-01-27T06:13:47.974Z,103049.28
2023-01-27T06:16:20.601Z,102997.78
2023-01-27T06:18:48.657Z,103033.59
2023-01-27T06:21:17.027Z,102994.28
2023-01-27T06:23:44.097Z,103003.91
2023-01-27T06:26:18.735Z,103011.75
2023-01-27T06:28:46.086Z,103099.09
2023-01-27T06:31:16.228Z,103037.06
2023-01-27T06:33:44.452Z,102994.28
2023-01-27T06:36:14.115Z,103063.28
2023-01-27T06:38:41.365Z,103055.41
2023-01-27T06:41:08.584Z,103037.06
2023-01-27T06:43:35.662Z,103031.81
2023-01-27T06:46:05.700Z,103013.50
2023-01-27T06:48:34.116Z,103034.44
2023-01-27T06:51:01.558Z,102972.47
2023-01-27T06:53:28.785Z,103043.19
2023-01-27T06:56:01.131Z,102982.06
2023-01-27T06:58:28.825Z,102988.19
2023-01-27T07:00:57.221Z,103094.72
2023-01-27T07:03:25.193Z,102998.66
2023-01-27T07:05:53.598Z,103051.03
2023-01-27T07:08:20.832Z,103061.53
2023-01-27T07:10:47.853Z,103013.50
2023-01-27T07:13:16.145Z,103051.91
2023-01-27T07:15:43.280Z,103016.13
2023-01-27T07:18:12.280Z,103097.31
2023-01-27T07:20:39.986Z,103127.94
2023-01-27T07:23:07.395Z,103101.69
2023-01-27T07:25:36.070Z,103025.72
2023-01-27T07:28:05.780Z,103136.66
2023-01-27T07:30:37.605Z,103099.94
2023-01-27T07:33:06.789Z,103030.91
2023-01-27T07:35:34.194Z,103061.50
2023-01-27T07:38:02.891Z,103097.31
2023-01-27T07:40:29.736Z,103157.63
2023-01-27T07:43:00.963Z,103038.75
2023-01-27T07:45:29.435Z,103044.03
2023-01-27T07:48:13.140Z,103046.66
2023-01-27T07:50:41.989Z,103063.25
2023-01-27T07:53:10.917Z,103131.38
2023-01-27T07:55:38.127Z,103157.59
2023-01-27T07:58:06.087Z,103061.50
2023-01-27T08:00:33.698Z,103061.50
2023-01-27T08:03:02.102Z,103099.06
2023-01-27T08:05:34.849Z,103079.84
2023-01-27T08:08:04.659Z,103142.75
2023-01-27T08:10:32.123Z,103099.94
2023-01-27T08:12:59.341Z,103172.47
2023-01-27T08:15:27.492Z,103064.13
2023-01-27T08:17:58.941Z,103100.81
2023-01-27T08:20:27.888Z,103121.78
2023-01-27T08:22:55.203Z,103148.91
2023-01-27T08:25:22.455Z,103109.53
2023-01-27T08:27:51.324Z,103134.88
2023-01-27T08:30:19.444Z,103117.41
2023-01-27T08:32:46.848Z,103069.34
2023-01-27T08:35:14.304Z,103118.28
2023-01-27T08:37:41.174Z,103058.00
2023-01-27T08:40:09.040Z,103138.38
2023-01-27T08:42:36.020Z,103170.72
2023-01-27T08:45:03.351Z,103087.69
2023-01-27T08:47:30.503Z,103120.91
2023-01-27T08:49:57.435Z,103087.69
2023-01-27T08:52:24.340Z,103069.34
2023-01-27T08:54:51.514Z,103171.63
2023-01-27T08:57:18.553Z,103169.88
2023-01-27T08:59:46.411Z,103125.28
2023-01-27T09:02:14.608Z,103133.13
2023-01-27T09:04:44.446Z,103135.75
2023-01-27T09:07:11.973Z,103134.00
2023-01-27T09:09:39.136Z,103157.63
2023-01-27T09:12:06.065Z,103116.53
2023-01-27T09:14:34.539Z,103117.41
2023-01-27T09:17:03.845Z,103058.03
2023-01-27T09:19:30.987Z,103136.63
2023-01-27T09:21:58.031Z,103162.00
2023-01-27T09:24:25.333Z,103086.84
2023-01-27T09:26:52.631Z,103156.75
2023-01-27T09:29:19.693Z,103099.06
2023-01-27T09:31:49.702Z,103093.81
2023-01-27T09:34:18.048Z,103163.75
2023-01-27T09:36:49.892Z,103161.13
2023-01-27T09:39:20.087Z,103130.50
2023-01-27T09:42:01.945Z,103153.25
2023-01-27T09:44:57.112Z,103193.47
2023-01-27T09:47:33.381Z,103202.19
2023-01-27T09:50:19.997Z,103196.94
2023-01-27T09:53:19.157Z,103190.81
2023-01-27T09:55:58.529Z,103193.44
2023-01-27T09:58:50.212Z,103203.06
2023-01-27T10:01:31.286Z,103140.16
2023-01-27T10:04:06.221Z,103192.56
2023-01-27T10:06:34.799Z,103199.56
2023-01-27T10:09:43.437Z,103190.81
2023-01-27T10:12:30.887Z,103113.94
2023-01-27T10:15:20.982Z,103183.84
2023-01-27T10:17:56.749Z,103203.94
2023-01-27T10:20:35.591Z,103201.31
2023-01-27T10:23:14.299Z,103194.31
2023-01-27T10:26:18.544Z,103204.81
2023-01-27T10:29:09.012Z,103208.31
2023-01-27T10:32:06.537Z,103146.25
2023-01-27T10:34:37.012Z,103154.09
2023-01-27T10:37:27.308Z,103203.06
2023-01-27T10:40:03.009Z,103197.84
2023-01-27T10:42:44.542Z,103092.97
2023-01-27T10:45:23.411Z,103153.25
2023-01-27T10:48:16.479Z,103202.22
2023-01-27T10:51:07.856Z,103123.56
2023-01-27T10:53:58.169Z,103123.56
2023-01-27T10:56:31.719Z,103208.31
2023-01-27T10:59:26.598Z,103197.81
2023-01-27T11:02:00.770Z,103165.50
2023-01-27T11:04:37.775Z,103144.53
2023-01-27T11:07:06.864Z,103152.38
2023-01-27T11:09:44.912Z,103092.97
2023-01-27T11:12:16.255Z,103196.94
2023-01-27T11:14:52.706Z,103199.56
2023-01-27T11:17:31.067Z,103134.03
2023-01-27T11:20:20.194Z,103196.06
2023-01-27T11:23:16.796Z,103147.13
2023-01-27T11:26:01.541Z,103189.06
2023-01-27T11:28:48.719Z,103101.72
2023-01-27T11:31:22.341Z,103146.25
2023-01-27T11:34:04.038Z,103144.50
2023-01-27T11:36:31.525Z,103096.47
2023-01-27T11:39:01.719Z,103146.25
2023-01-27T11:41:32.298Z,103099.09
2023-01-27T11:44:04.974Z,103101.72
2023-01-27T11:46:32.540Z,103159.34
2023-01-27T11:48:59.607Z,103156.75
2023-01-27T11:51:35.522Z,103192.56
2023-01-27T11:54:14.533Z,103148.00
2023-01-27T11:56:47.321Z,103157.59
2023-01-27T11:59:29.605Z,103178.59
2023-01-27T12:02:03.678Z,103127.91
2023-01-27T12:04:53.462Z,103100.81
2023-01-27T12:07:54.476Z,103114.78
2023-01-27T12:10:42.225Z,103111.28
2023-01-27T12:13:19.146Z,103154.06
2023-01-27T12:16:05.288Z,103109.50
2023-01-27T12:18:34.286Z,103154.06
2023-01-27T12:21:04.264Z,103150.59
2023-01-27T12:23:39.666Z,103133.09
2023-01-27T12:26:09.155Z,103078.97
2023-01-27T12:28:40.415Z,103064.13
2023-01-27T12:31:11.272Z,103045.78
2023-01-27T12:33:42.040Z,103161.09
2023-01-27T12:36:24.610Z,103066.75
2023-01-27T12:38:54.405Z,103115.63
2023-01-27T12:41:28.489Z,103121.75
2023-01-27T12:44:20.712Z,103159.31
2023-01-27T12:47:01.599Z,103100.78
2023-01-27T12:49:33.744Z,103151.44
2023-01-27T12:52:05.044Z,103149.69
2023-01-27T12:54:33.191Z,103092.03
2023-01-27T12:57:12.343Z,103073.72
2023-01-27T12:59:52.464Z,103120.88
2023-01-27T13:02:21.235Z,103122.59
2023-01-27T13:04:53.409Z,103153.16
2023-01-27T13:07:31.145Z,103150.53
2023-01-27T13:10:03.897Z,103112.13
2023-01-27T13:13:15.281Z,103103.38
2023-01-27T13:15:53.685Z,103092.88
2023-01-27T13:18:24.657Z,103069.31
2023-01-27T13:20:58.799Z,103112.13
2023-01-27T13:23:35.105Z,103126.94
2023-01-27T13:26:13.400Z,103147.03
2023-01-27T13:29:09.435Z,103057.09
2023-01-27T13:31:52.865Z,103049.25
2023-01-27T13:34:41.390Z,103143.56
2023-01-27T13:37:19.407Z,103154.03
2023-01-27T13:40:01.406Z,103161.06
2023-01-27T13:42:33.851Z,103163.69
2023-01-27T13:45:06.034Z,103154.06
2023-01-27T13:48:05.112Z,103111.28
2023-01-27T13:50:42.407Z,103134.84
2023-01-27T13:53:29.542Z,103161.06
2023-01-27T13:56:01.792Z,103167.19
2023-01-27T13:59:09.656Z,103133.13
2023-01-27T14:01:54.730Z,103180.34
2023-01-27T14:05:00.546Z,103171.59
2023-01-27T14:07:42.727Z,103140.97
2023-01-27T14:10:41.602Z,103175.97
2023-01-27T14:13:17.388Z,103175.09
2023-01-27T14:15:55.135Z,103173.34
2023-01-27T14:18:29.296Z,103104.31
2023-01-27T14:21:39.320Z,103149.75
2023-01-27T14:24:24.732Z,103175.97
2023-01-27T14:27:01.036Z,103177.69
2023-01-27T14:29:54.495Z,103110.44
2023-01-27T14:32:47.080Z,103129.66
2023-01-27T14:35:39.260Z,103170.69
2023-01-27T14:38:39.949Z,103154.09
2023-01-27T14:41:18.759Z,103177.69
2023-01-27T14:44:15.898Z,103133.97
2023-01-27T14:47:08.943Z,103150.59
2023-01-27T14:49:54.425Z,103175.94
2023-01-27T14:52:58.860Z,103121.75
2023-01-27T14:55:31.974Z,103117.38
2023-01-27T14:58:29.476Z,103181.16
2023-01-27T15:01:10.609Z,103174.16
2023-01-27T15:04:26.562Z,103174.19
2023-01-27T15:07:03.915Z,103189.00
2023-01-27T15:10:02.201Z,103202.16
2023-01-27T15:13:17.864Z,103173.34
2023-01-27T15:16:01.623Z,103136.63
2023-01-27T15:18:32.445Z,103193.41
2023-01-27T15:21:21.124Z,103196.91
2023-01-27T15:24:16.514Z,103193.41
2023-01-27T15:26:44.372Z,103174.19
2023-01-27T15:29:15.516Z,103138.38
2023-01-27T15:31:43.342Z,103152.34
2023-01-27T15:34:30.493Z,103196.03
2023-01-27T15:37:12.512Z,103200.41
2023-01-27T15:40:15.763Z,103154.97
2023-01-27T15:42:58.555Z,103132.25
2023-01-27T15:45:31.474Z,103134.88
2023-01-27T15:48:24.686Z,103154.97
2023-01-27T15:51:00.183Z,103175.97
2023-01-27T15:53:37.290Z,103141.88
2023-01-27T15:56:05.659Z,103154.09
2023-01-27T15:58:41.869Z,103204.78
2023-01-27T16:01:12.279Z,103154.09
2023-01-27T16:03:46.691Z,103193.47
2023-01-27T16:06:25.497Z,103143.63
2023-01-27T16:09:02.890Z,103148.88
2023-01-27T16:11:30.037Z,103212.69
2023-01-27T16:14:12.341Z,103220.56
2023-01-27T16:17:03.215Z,103159.38
2023-01-27T16:19:38.884Z,103226.66
2023-01-27T16:22:12.705Z,103187.34
2023-01-27T16:24:57.033Z,103223.16
2023-01-27T16:27:52.342Z,103195.22
2023-01-27T16:30:45.013Z,103164.63
2023-01-27T16:33:34.746Z,103233.66
2023-01-27T16:36:28.113Z,103230.16
2023-01-27T16:38:58.385Z,103175.97
2023-01-27T16:41:32.878Z,103194.34
2023-01-27T16:44:05.295Z,103199.56
2023-01-27T16:46:39.819Z,103183.84
2023-01-27T16:49:23.446Z,103173.34
2023-01-27T16:52:00.372Z,103178.59
2023-01-27T16:54:34.343Z,103250.28
2023-01-27T16:57:05.373Z,103181.19
2023-01-27T16:59:39.074Z,103196.06
2023-01-27T17:02:22.487Z,103201.31
2023-01-27T17:05:04.640Z,103210.06
2023-01-27T17:07:34.758Z,103194.31
2023-01-27T17:10:16.779Z,103223.16
2023-01-27T17:12:53.771Z,103221.41
2023-01-27T17:15:29.307Z,103209.19
2023-01-27T17:17:57.963Z,103224.03
2023-01-27T17:20:32.228Z,103242.41
2023-01-27T17:23:00.735Z,103229.28
2023-01-27T17:25:32.919Z,103224.91
2023-01-27T17:28:12.068Z,103255.50
2023-01-27T17:30:42.736Z,103236.28
2023-01-27T17:33:23.652Z,103281.75
2023-01-27T17:35:54.504Z,103280.88
2023-01-27T17:38:45.650Z,103271.25
2023-01-27T17:41:29.442Z,103229.25
2023-01-27T17:44:02.637Z,103239.75
2023-01-27T17:46:33.983Z,103259.84
2023-01-27T17:49:14.470Z,103299.22
2023-01-27T17:51:45.822Z,103236.19
2023-01-27T17:54:25.681Z,103245.84
2023-01-27T17:57:19.642Z,103230.94
2023-01-27T18:00:10.857Z,103281.72
2023-01-27T18:03:00.592Z,103246.69
2023-01-27T18:05:32.356Z,103241.44
2023-01-27T18:08:00.789Z,103239.66
2023-01-27T18:10:46.117Z,103284.31
2023-01-27T18:13:16.193Z,103313.16
2023-01-27T18:15:54.607Z,103242.28
2023-01-27T18:18:30.617Z,103297.44
2023-01-27T18:20:57.568Z,103310.56
2023-01-27T18:23:30.664Z,103314.94
2023-01-27T18:26:16.603Z,103316.66
2023-01-27T18:28:46.083Z,103257.97
2023-01-27T18:31:20.676Z,103266.75
2023-01-27T18:33:55.489Z,103319.28
2023-01-27T18:36:24.781Z,103257.97
2023-01-27T18:38:52.486Z,103290.34
2023-01-27T18:41:29.682Z,103317.44
2023-01-27T18:43:59.409Z,103271.94
2023-01-27T18:46:27.489Z,103275.44
2023-01-27T18:48:55.749Z,103321.81
2023-01-27T18:51:24.546Z,103299.03
2023-01-27T18:53:52.281Z,103301.69
2023-01-27T18:56:19.500Z,103290.28
2023-01-27T18:58:46.675Z,103315.66
2023-01-27T19:01:35.174Z,103351.56
2023-01-27T19:04:03.220Z,103291.16
2023-01-27T19:06:30.544Z,103289.44
2023-01-27T19:08:58.649Z,103306.91
2023-01-27T19:11:25.694Z,103336.66
2023-01-27T19:13:57.745Z,103306.03
2023-01-27T19:16:28.762Z,103335.75
2023-01-27T19:18:56.928Z,103290.25
2023-01-27T19:21:23.942Z,103297.25
2023-01-27T19:23:51.411Z,103288.50
2023-01-27T19:26:20.663Z,103360.31
2023-01-27T19:28:51.726Z,103307.78
2023-01-27T19:31:19.423Z,103298.09
2023-01-27T19:33:47.738Z,103325.19
2023-01-27T19:36:29.794Z,103330.47
2023-01-27T19:39:18.444Z,103299.81
2023-01-27T19:41:46.231Z,103325.22
2023-01-27T19:44:14.736Z,103287.56
2023-01-27T19:46:43.453Z,103286.69
2023-01-27T19:49:18.611Z,103285.78
2023-01-27T19:51:45.851Z,103299.75
2023-01-27T19:54:13.282Z,103336.53
2023-01-27T19:56:40.478Z,103318.19
2023-01-27T19:59:08.404Z,103328.72
2023-01-27T20:01:36.143Z,103291.09
2023-01-27T20:04:03.666Z,103293.72
2023-01-27T20:06:34.409Z,103287.59
2023-01-27T20:09:03.726Z,103286.69
2023-01-27T20:11:40.009Z,103291.94
2023-01-27T20:14:16.651Z,103293.63
2023-01-27T20:16:43.900Z,103286.66
2023-01-27T20:19:15.308Z,103324.31
2023-01-27T20:21:43.913Z,103297.16
2023-01-27T20:24:18.958Z,103283.22
2023-01-27T20:26:47.413Z,103355.84
2023-01-27T20:29:15.363Z,103329.59
2023-01-27T20:31:42.656Z,103349.75
2023-01-27T20:36:51.001Z,103282.34
2023-01-27T20:39:18.109Z,103281.47
2023-01-27T20:41:45.294Z,103296.34
2023-01-27T20:44:13.387Z,103300.75
2023-01-27T20:46:40.262Z,103292.00
2023-01-27T20:49:07.597Z,103312.97
2023-01-27T20:51:34.608Z,103296.34
2023-01-27T20:54:01.863Z,103285.81
2023-01-27T20:56:28.891Z,103284.06
2023-01-27T20:58:56.159Z,103305.13
2023-01-27T21:01:24.062Z,103286.78
2023-01-27T21:09:09.102Z,103335.75
2023-01-27T21:11:37.653Z,103334.88
2023-01-27T21:14:04.524Z,103336.63
2023-01-27T21:16:32.487Z,103333.13
2023-01-27T21:18:59.715Z,103294.59
2023-01-27T21:21:33.923Z,103325.19
2023-01-27T21:24:05.553Z,103295.50
2023-01-27T21:26:39.201Z,103306.88
2023-01-27T21:29:07.401Z,103283.25
2023-01-27T21:31:34.661Z,103320.88
2023-01-27T21:34:16.500Z,103301.59
2023-01-27T21:36:43.665Z,103293.72
2023-01-27T21:39:10.590Z,103295.47
2023-01-27T21:41:52.827Z,103313.88
2023-01-27T21:44:46.809Z,103289.38
2023-01-27T21:47:19.449Z,103317.34
2023-01-27T21:50:04.048Z,103326.09
2023-01-27T21:52:46.911Z,103326.09
2023-01-27T21:55:26.466Z,103323.50
2023-01-27T21:57:56.237Z,103292.00
2023-01-27T22:00:26.849Z,103319.16
2023-01-27T22:02:58.252Z,103300.75
2023-01-27T22:05:27.268Z,103319.09
2023-01-27T22:07:56.888Z,103317.38
2023-01-27T22:10:27.597Z,103279.75
2023-01-27T22:13:04.305Z,103314.75
2023-01-27T22:15:32.279Z,103290.25
2023-01-27T22:18:01.401Z,103302.47
2023-01-27T22:20:35.857Z,103289.38
2023-01-27T22:23:03.018Z,103289.38
2023-01-27T22:25:31.335Z,103286.75
2023-01-27T22:27:58.224Z,103255.25
2023-01-27T22:30:26.283Z,103289.41
2023-01-27T22:32:53.148Z,103299.91
2023-01-27T22:35:20.219Z,103269.28
2023-01-27T22:37:50.440Z,103256.97
2023-01-27T22:40:18.101Z,103305.97
2023-01-27T22:42:50.883Z,103277.09
2023-01-27T22:45:18.602Z,103288.47
2023-01-27T22:47:45.602Z,103300.72
2023-01-27T22:50:13.244Z,103310.34
2023-01-27T22:52:39.992Z,103313.88
2023-01-27T22:55:08.866Z,103313.84
2023-01-27T22:57:35.789Z,103309.47
2023-01-27T23:00:02.971Z,103300.72
2023-01-27T23:02:29.857Z,103295.47
2023-01-27T23:04:57.515Z,103306.84
2023-01-27T23:07:26.109Z,103291.97
2023-01-27T23:09:52.655Z,103313.81
2023-01-27T23:12:19.618Z,103298.13
2023-01-27T23:14:46.364Z,103307.75
2023-01-27T23:17:15.922Z,103285.88
2023-01-27T23:19:42.921Z,103310.31
2023-01-27T23:22:09.670Z,103294.56
2023-01-27T23:24:37.453Z,103269.19
2023-01-27T23:27:07.390Z,103270.13
2023-01-27T23:29:34.095Z,103311.22
2023-01-27T23:32:02.239Z,103279.72
2023-01-27T23:34:29.108Z,103284.94
2023-01-27T23:36:56.913Z,103304.19
2023-01-27T23:39:23.665Z,103284.06
2023-01-27T23:41:53.765Z,103320.81
2023-01-27T23:44:21.898Z,103305.06
2023-01-27T23:46:48.818Z,103313.81
2023-01-27T23:49:15.708Z,103316.41
2023-01-27T23:51:42.510Z,103319.03
2023-01-27T23:54:09.467Z,103310.31
2023-01-27T23:56:37.296Z,103293.63
2023-01-27T23:59:06.317Z,103297.13
